Morton S Bouchard Jr — WSE9678 — position and weather

sailwx.info

Track history (hours):
 
Tides and Currents Weather Stations Pressure Air Temp Water Temp Dewpoint Dewpoint Depression Visibility Wind Speed Wind Dir Waves Ship Positions

Morton S Bouchard Jr

Owner: BOUCHARD TRANSPORTATION CO INC, MELVILLE, NY. More information available from US FCC via Universal Licensing System and Coast Guard Vessel Documentation Center.

Last reported at 2015-Aug-30 09:33 UTC. Time now 2015-Aug-30 09:59 UTC.
Position N 40°39' W 074°03'.

Length 33 m; draft 5 m.

Type: Tug. MMSI: 367006550.

Date/timePositionNaut miles runAvg speedWind from/ knotsBaromVisibWave heightAir tempDewpointWater temp
2015-Aug-30 09:33N 40°39' W 074°03'0 0.1
2015-Aug-30 08:33N 40°39' W 074°03'0 0.0
2015-Aug-30 07:33N 40°39' W 074°03'0 0.0
2015-Aug-30 06:33N 40°39' W 074°03'0 0.0
2015-Aug-30 05:33N 40°39' W 074°03'0 0.0
2015-Aug-30 04:33N 40°39' W 074°03'0 0.1
2015-Aug-30 03:33N 40°39' W 074°03'0 0.0
2015-Aug-30 02:33N 40°39' W 074°03'0 0.0
2015-Aug-30 01:33N 40°39' W 074°03'0 0.0
2015-Aug-30 00:33N 40°39' W 074°03'0 0.0
2015-Aug-29 23:33N 40°39' W 074°03'0 0.0
2015-Aug-29 22:33N 40°39' W 074°03'3 3.4
2015-Aug-29 21:33N 40°42' W 074°00'6 6.2
2015-Aug-29 20:33N 40°47' W 073°55'7 6.5
2015-Aug-29 19:31N 40°49' W 073°47'7 6.9
2015-Aug-29 18:32N 40°54' W 073°41'7 5.5
2015-Aug-29 17:15N 40°57' W 073°33'4 6.2
2015-Aug-29 16:33N 40°59' W 073°28'6 6.4
2015-Aug-29 15:33N 41°01' W 073°19'7 6.8
2015-Aug-29 14:33N 41°02' W 073°10'10 9.6
2015-Aug-29 13:33N 41°04' W 072°58'1110.5
2015-Aug-29 12:29N 41°06' W 072°43'1010.8
2015-Aug-29 11:33N 41°09' W 072°31'1111.2
2015-Aug-29 10:33N 41°13' W 072°16'9 9.5
2015-Aug-29 09:33N 41°14' W 072°04'82 1.7
2015-Aug-27 08:32N 42°20' W 070°58'45 2.8
2015-Aug-26 16:33N 41°37' W 070°42'5 4.8
2015-Aug-26 15:33N 41°33' W 070°45'6 5.7
2015-Aug-26 14:33N 41°30' W 070°52'7 6.6
2015-Aug-26 13:33N 41°27' W 070°60'7 6.7
2015-Aug-26 12:33N 41°24' W 071°07'7 6.7
2015-Aug-26 11:33N 41°24' W 071°16'6 5.9
2015-Aug-26 10:33N 41°27' W 071°23'3 3.0
2015-Aug-26 09:33N 41°30' W 071°21'1 1.3
2015-Aug-26 08:33N 41°31' W 071°21'0 0.3
2015-Aug-26 07:30N 41°31' W 071°21'0 0.0
2015-Aug-26 06:33N 41°31' W 071°21'0 0.0
2015-Aug-26 05:33N 41°31' W 071°21'0 0.1
2015-Aug-26 04:33N 41°31' W 071°21'0 0.1
2015-Aug-26 03:33N 41°31' W 071°21'0 0.1
2015-Aug-26 02:33N 41°31' W 071°21'0 0.1
2015-Aug-26 01:33N 41°31' W 071°21'0 0.1
2015-Aug-26 00:33N 41°31' W 071°21'0 0.2
2015-Aug-25 23:33N 41°31' W 071°21'0 0.2
2015-Aug-25 22:24N 41°31' W 071°21'0 0.0
2015-Aug-25 21:33N 41°31' W 071°21'0 0.0
2015-Aug-25 20:33N 41°31' W 071°21'0 0.0
2015-Aug-25 19:32N 41°31' W 071°21'0 0.0
2015-Aug-25 18:33N 41°31' W 071°21'0 0.0
2015-Aug-25 17:33N 41°31' W 071°21'0 0.0
2015-Aug-25 16:33N 41°31' W 071°21'0 0.1
2015-Aug-25 15:33N 41°31' W 071°21'0 0.3
2015-Aug-25 14:33N 41°31' W 071°21'0 0.1
2015-Aug-25 13:33N 41°31' W 071°21'0 0.1
2015-Aug-25 12:33N 41°31' W 071°21'0 0.0
2015-Aug-25 11:33N 41°31' W 071°21'0 0.0
2015-Aug-25 10:33N 41°31' W 071°21'0 0.0
2015-Aug-25 09:33N 41°31' W 071°21'0 0.1
2015-Aug-25 08:33N 41°31' W 071°21'0 0.0
2015-Aug-25 07:33N 41°31' W 071°21'0 0.0
2015-Aug-25 06:33N 41°31' W 071°21'0 0.0
2015-Aug-25 05:33N 41°31' W 071°21'0 0.0
2015-Aug-25 04:33N 41°31' W 071°21'0 0.0
2015-Aug-25 03:33N 41°31' W 071°21'0 0.0
2015-Aug-25 02:33N 41°31' W 071°21'0 0.1
2015-Aug-25 01:33N 41°31' W 071°21'0 0.1
2015-Aug-25 00:33N 41°31' W 071°21'0 0.0
2015-Aug-24 23:33N 41°31' W 071°21'0 0.0
2015-Aug-24 22:33N 41°31' W 071°21'0 0.1
2015-Aug-24 21:33N 41°31' W 071°21'0 0.1
2015-Aug-24 20:33N 41°31' W 071°21'2 2.3
2015-Aug-24 19:33N 41°29' W 071°21'7 6.8
2015-Aug-24 18:33N 41°22' W 071°24'7 6.8
2015-Aug-24 17:33N 41°18' W 071°31'8 8.1
2015-Aug-24 16:33N 41°17' W 071°42'27 8.9
2015-Aug-24 13:33N 41°12' W 072°17'10 9.7
2015-Aug-24 12:33N 41°08' W 072°29'9 8.8
2015-Aug-24 11:33N 41°06' W 072°40'8 8.5
2015-Aug-24 10:33N 41°04' W 072°51'8 8.2
2015-Aug-24 09:33N 41°02' W 073°02'8 7.9
2015-Aug-24 08:33N 41°01' W 073°12'8 7.9
2015-Aug-24 07:33N 41°01' W 073°23'8 7.9
2015-Aug-24 06:33N 40°57' W 073°32'8 7.7
2015-Aug-24 05:33N 40°54' W 073°41'5 4.5
2015-Aug-24 04:29N 40°51' W 073°46'7 7.0
2015-Aug-24 03:33N 40°48' W 073°54'6 6.4
2015-Aug-24 02:33N 40°43' W 073°58'6 5.8
2015-Aug-24 01:33N 40°39' W 074°04'6 6.3
2015-Aug-24 00:33N 40°37' W 074°12'5 5.3
2015-Aug-23 23:33N 40°33' W 074°15'3 1.4
2015-Aug-23 21:32N 40°35' W 074°13'6 5.8
2015-Aug-23 20:33N 40°39' W 074°07'0 0.4
2015-Aug-23 19:33N 40°39' W 074°07'0 0.0
2015-Aug-23 18:33N 40°39' W 074°07'0 0.0
2015-Aug-23 17:33N 40°39' W 074°07'0 0.0
2015-Aug-23 16:33N 40°39' W 074°07'0 0.0
2015-Aug-23 15:33N 40°39' W 074°07'1 1.1
2015-Aug-23 14:33N 40°39' W 074°08'8 7.6
2015-Aug-23 13:33N 40°33' W 074°15'1 1.1
2015-Aug-23 12:33N 40°33' W 074°14'6 5.9
2015-Aug-23 11:33N 40°39' W 074°11'6 6.0
2015-Aug-23 10:33N 40°40' W 074°03'3 2.7
2015-Aug-23 09:33N 40°42' W 074°00'8 7.5
2015-Aug-23 08:33N 40°48' W 073°54'7 6.5
2015-Aug-23 07:33N 40°50' W 073°46'6 5.5
2015-Aug-23 06:33N 40°54' W 073°41'7 6.2
2015-Aug-23 05:30N 40°57' W 073°33'7 7.8
2015-Aug-23 04:33N 41°00' W 073°25'8 8.1
2015-Aug-23 03:33N 41°01' W 073°14'8 8.2
2015-Aug-23 02:33N 41°02' W 073°03'9 8.7
2015-Aug-23 01:32N 41°04' W 072°52'8 8.4
2015-Aug-23 00:33N 41°06' W 072°41'8 7.9
2015-Aug-22 23:33N 41°07' W 072°31'7 7.4
2015-Aug-22 22:33N 41°11' W 072°22'8 8.1
2015-Aug-22 21:33N 41°13' W 072°12'9 8.9
2015-Aug-22 20:33N 41°14' W 072°00'1010.3
2015-Aug-22 19:33N 41°16' W 071°47'1010.4
2015-Aug-22 18:33N 41°18' W 071°33'8 8.3
2015-Aug-22 17:33N 41°23' W 071°25'9 8.8
2015-Aug-22 16:33N 41°31' W 071°20'7 6.6
2015-Aug-22 15:33N 41°38' W 071°18'8 7.7
2015-Aug-22 14:33N 41°44' W 071°22'4 3.8
2015-Aug-22 13:32N 41°48' W 071°24'0 0.0
2015-Aug-22 12:32N 41°48' W 071°24'0 0.0
2015-Aug-22 11:33N 41°48' W 071°24'0 0.0
2015-Aug-22 10:33N 41°48' W 071°24'0 0.0
2015-Aug-22 09:33N 41°48' W 071°24'0 0.0
2015-Aug-22 08:33N 41°48' W 071°24'0 0.0
2015-Aug-22 07:33N 41°48' W 071°24'0 0.0
2015-Aug-22 06:33N 41°48' W 071°24'0 0.0
2015-Aug-22 05:33N 41°48' W 071°24'0 0.0
2015-Aug-22 04:33N 41°48' W 071°24'0 0.0
2015-Aug-22 03:33N 41°48' W 071°24'0 0.0
2015-Aug-22 02:33N 41°48' W 071°24'0 0.0
2015-Aug-22 01:33N 41°48' W 071°24'0 0.0
2015-Aug-22 00:33N 41°48' W 071°24'0 0.0
2015-Aug-21 23:33N 41°48' W 071°24'0 0.0
2015-Aug-21 22:31N 41°48' W 071°24'0 0.0
2015-Aug-21 21:32N 41°48' W 071°24'0 0.0
2015-Aug-21 20:31N 41°48' W 071°24'0 0.0
2015-Aug-21 19:33N 41°48' W 071°24'0 0.0
2015-Aug-21 18:33N 41°48' W 071°24'0 0.0
2015-Aug-21 17:33N 41°48' W 071°24'1 1.1
2015-Aug-21 16:33N 41°47' W 071°23'7 7.2
2015-Aug-21 15:33N 41°41' W 071°19'8 8.2
2015-Aug-21 14:33N 41°33' W 071°20'4 4.2
2015-Aug-21 13:33N 41°29' W 071°21'6 5.5
2015-Aug-21 12:33N 41°24' W 071°25'6 6.4
2015-Aug-21 11:33N 41°18' W 071°28'7 7.4
2015-Aug-21 10:33N 41°17' W 071°38'8 7.7
2015-Aug-21 09:33N 41°16' W 071°48'7 7.1
2015-Aug-21 08:33N 41°14' W 071°57'6 6.5
2015-Aug-21 07:34N 41°15' W 072°06'6 6.3
2015-Aug-21 06:33N 41°13' W 072°14'6 6.0
2015-Aug-21 05:33N 41°11' W 072°21'6 6.1
2015-Aug-21 04:33N 41°08' W 072°28'6 6.5
2015-Aug-21 03:33N 41°07' W 072°37'7 7.1
2015-Aug-21 02:33N 41°05' W 072°46'7 7.5
2015-Aug-21 01:33N 41°03' W 072°56'8 7.8
2015-Aug-21 00:33N 41°02' W 073°06'8 7.8
2015-Aug-20 23:33N 41°01' W 073°16'8 7.9
2015-Aug-20 22:33N 40°59' W 073°26'8 7.8
2015-Aug-20 21:33N 40°56' W 073°36'5 5.4
2015-Aug-20 20:33N 40°54' W 073°42'5 5.2
2015-Aug-20 19:33N 40°50' W 073°47'6 6.0
2015-Aug-20 18:33N 40°48' W 073°54'6 6.5
2015-Aug-20 17:33N 40°42' W 073°59'6 5.7
2015-Aug-20 16:33N 40°39' W 074°05'1 1.4
2015-Aug-20 15:33N 40°39' W 074°07'1 0.6
2015-Aug-20 14:33N 40°39' W 074°07'0 0.0
2015-Aug-20 13:33N 40°39' W 074°07'0 0.0
2015-Aug-20 12:33N 40°39' W 074°07'0 0.0
2015-Aug-20 11:33N 40°39' W 074°07'0 0.0
2015-Aug-20 10:33N 40°39' W 074°07'0 0.0
2015-Aug-20 09:33N 40°39' W 074°07'  
Track history (hours):
 
Tides and Currents Weather Stations Pressure Air Temp Water Temp Dewpoint Dewpoint Depression Visibility Wind Speed Wind Dir Waves Ship Positions

Morton S Bouchard Jr

Owner: BOUCHARD TRANSPORTATION CO INC, MELVILLE, NY. More information available from US FCC via Universal Licensing System and Coast Guard Vessel Documentation Center.

Last reported at 2015-Aug-30 09:33 UTC. Time now 2015-Aug-30 09:59 UTC.
Position N 40°39' W 074°03'.

Length 33 m; draft 5 m.

Type: Tug. MMSI: 367006550.

Date/timePositionNaut miles runAvg speedWind from/ knotsBaromVisibWave heightAir tempDewpointWater temp
2015-Aug-30 09:33N 40°39' W 074°03'0 0.1
2015-Aug-30 08:33N 40°39' W 074°03'0 0.0
2015-Aug-30 07:33N 40°39' W 074°03'0 0.0
2015-Aug-30 06:33N 40°39' W 074°03'0 0.0
2015-Aug-30 05:33N 40°39' W 074°03'0 0.0
2015-Aug-30 04:33N 40°39' W 074°03'0 0.1
2015-Aug-30 03:33N 40°39' W 074°03'0 0.0
2015-Aug-30 02:33N 40°39' W 074°03'0 0.0
2015-Aug-30 01:33N 40°39' W 074°03'0 0.0
2015-Aug-30 00:33N 40°39' W 074°03'0 0.0
2015-Aug-29 23:33N 40°39' W 074°03'0 0.0
2015-Aug-29 22:33N 40°39' W 074°03'3 3.4
2015-Aug-29 21:33N 40°42' W 074°00'6 6.2
2015-Aug-29 20:33N 40°47' W 073°55'7 6.5
2015-Aug-29 19:31N 40°49' W 073°47'7 6.9
2015-Aug-29 18:32N 40°54' W 073°41'7 5.5
2015-Aug-29 17:15N 40°57' W 073°33'4 6.2
2015-Aug-29 16:33N 40°59' W 073°28'6 6.4
2015-Aug-29 15:33N 41°01' W 073°19'7 6.8
2015-Aug-29 14:33N 41°02' W 073°10'10 9.6
2015-Aug-29 13:33N 41°04' W 072°58'1110.5
2015-Aug-29 12:29N 41°06' W 072°43'1010.8
2015-Aug-29 11:33N 41°09' W 072°31'1111.2
2015-Aug-29 10:33N 41°13' W 072°16'9 9.5
2015-Aug-29 09:33N 41°14' W 072°04'82 1.7
2015-Aug-27 08:32N 42°20' W 070°58'45 2.8
2015-Aug-26 16:33N 41°37' W 070°42'5 4.8
2015-Aug-26 15:33N 41°33' W 070°45'6 5.7
2015-Aug-26 14:33N 41°30' W 070°52'7 6.6
2015-Aug-26 13:33N 41°27' W 070°60'7 6.7
2015-Aug-26 12:33N 41°24' W 071°07'7 6.7
2015-Aug-26 11:33N 41°24' W 071°16'6 5.9
2015-Aug-26 10:33N 41°27' W 071°23'3 3.0
2015-Aug-26 09:33N 41°30' W 071°21'1 1.3
2015-Aug-26 08:33N 41°31' W 071°21'0 0.3
2015-Aug-26 07:30N 41°31' W 071°21'0 0.0
2015-Aug-26 06:33N 41°31' W 071°21'0 0.0
2015-Aug-26 05:33N 41°31' W 071°21'0 0.1
2015-Aug-26 04:33N 41°31' W 071°21'0 0.1
2015-Aug-26 03:33N 41°31' W 071°21'0 0.1
2015-Aug-26 02:33N 41°31' W 071°21'0 0.1
2015-Aug-26 01:33N 41°31' W 071°21'0 0.1
2015-Aug-26 00:33N 41°31' W 071°21'0 0.2
2015-Aug-25 23:33N 41°31' W 071°21'0 0.2
2015-Aug-25 22:24N 41°31' W 071°21'0 0.0
2015-Aug-25 21:33N 41°31' W 071°21'0 0.0
2015-Aug-25 20:33N 41°31' W 071°21'0 0.0
2015-Aug-25 19:32N 41°31' W 071°21'0 0.0
2015-Aug-25 18:33N 41°31' W 071°21'0 0.0
2015-Aug-25 17:33N 41°31' W 071°21'0 0.0
2015-Aug-25 16:33N 41°31' W 071°21'0 0.1
2015-Aug-25 15:33N 41°31' W 071°21'0 0.3
2015-Aug-25 14:33N 41°31' W 071°21'0 0.1
2015-Aug-25 13:33N 41°31' W 071°21'0 0.1
2015-Aug-25 12:33N 41°31' W 071°21'0 0.0
2015-Aug-25 11:33N 41°31' W 071°21'0 0.0
2015-Aug-25 10:33N 41°31' W 071°21'0 0.0
2015-Aug-25 09:33N 41°31' W 071°21'0 0.1
2015-Aug-25 08:33N 41°31' W 071°21'0 0.0
2015-Aug-25 07:33N 41°31' W 071°21'0 0.0
2015-Aug-25 06:33N 41°31' W 071°21'0 0.0
2015-Aug-25 05:33N 41°31' W 071°21'0 0.0
2015-Aug-25 04:33N 41°31' W 071°21'0 0.0
2015-Aug-25 03:33N 41°31' W 071°21'0 0.0
2015-Aug-25 02:33N 41°31' W 071°21'0 0.1
2015-Aug-25 01:33N 41°31' W 071°21'0 0.1
2015-Aug-25 00:33N 41°31' W 071°21'0 0.0
2015-Aug-24 23:33N 41°31' W 071°21'0 0.0
2015-Aug-24 22:33N 41°31' W 071°21'0 0.1
2015-Aug-24 21:33N 41°31' W 071°21'0 0.1
2015-Aug-24 20:33N 41°31' W 071°21'2 2.3
2015-Aug-24 19:33N 41°29' W 071°21'7 6.8
2015-Aug-24 18:33N 41°22' W 071°24'7 6.8
2015-Aug-24 17:33N 41°18' W 071°31'8 8.1
2015-Aug-24 16:33N 41°17' W 071°42'27 8.9
2015-Aug-24 13:33N 41°12' W 072°17'10 9.7
2015-Aug-24 12:33N 41°08' W 072°29'9 8.8
2015-Aug-24 11:33N 41°06' W 072°40'8 8.5
2015-Aug-24 10:33N 41°04' W 072°51'8 8.2
2015-Aug-24 09:33N 41°02' W 073°02'8 7.9
2015-Aug-24 08:33N 41°01' W 073°12'8 7.9
2015-Aug-24 07:33N 41°01' W 073°23'8 7.9
2015-Aug-24 06:33N 40°57' W 073°32'8 7.7
2015-Aug-24 05:33N 40°54' W 073°41'5 4.5
2015-Aug-24 04:29N 40°51' W 073°46'7 7.0
2015-Aug-24 03:33N 40°48' W 073°54'6 6.4
2015-Aug-24 02:33N 40°43' W 073°58'6 5.8
2015-Aug-24 01:33N 40°39' W 074°04'6 6.3
2015-Aug-24 00:33N 40°37' W 074°12'5 5.3
2015-Aug-23 23:33N 40°33' W 074°15'3 1.4
2015-Aug-23 21:32N 40°35' W 074°13'6 5.8
2015-Aug-23 20:33N 40°39' W 074°07'0 0.4
2015-Aug-23 19:33N 40°39' W 074°07'0 0.0
2015-Aug-23 18:33N 40°39' W 074°07'0 0.0
2015-Aug-23 17:33N 40°39' W 074°07'0 0.0
2015-Aug-23 16:33N 40°39' W 074°07'0 0.0
2015-Aug-23 15:33N 40°39' W 074°07'1 1.1
2015-Aug-23 14:33N 40°39' W 074°08'8 7.6
2015-Aug-23 13:33N 40°33' W 074°15'1 1.1
2015-Aug-23 12:33N 40°33' W 074°14'6 5.9
2015-Aug-23 11:33N 40°39' W 074°11'6 6.0
2015-Aug-23 10:33N 40°40' W 074°03'3 2.7
2015-Aug-23 09:33N 40°42' W 074°00'8 7.5
2015-Aug-23 08:33N 40°48' W 073°54'7 6.5
2015-Aug-23 07:33N 40°50' W 073°46'6 5.5
2015-Aug-23 06:33N 40°54' W 073°41'7 6.2
2015-Aug-23 05:30N 40°57' W 073°33'7 7.8
2015-Aug-23 04:33N 41°00' W 073°25'8 8.1
2015-Aug-23 03:33N 41°01' W 073°14'8 8.2
2015-Aug-23 02:33N 41°02' W 073°03'9 8.7
2015-Aug-23 01:32N 41°04' W 072°52'8 8.4
2015-Aug-23 00:33N 41°06' W 072°41'8 7.9
2015-Aug-22 23:33N 41°07' W 072°31'7 7.4
2015-Aug-22 22:33N 41°11' W 072°22'8 8.1
2015-Aug-22 21:33N 41°13' W 072°12'9 8.9
2015-Aug-22 20:33N 41°14' W 072°00'1010.3
2015-Aug-22 19:33N 41°16' W 071°47'1010.4
2015-Aug-22 18:33N 41°18' W 071°33'8 8.3
2015-Aug-22 17:33N 41°23' W 071°25'9 8.8
2015-Aug-22 16:33N 41°31' W 071°20'7 6.6
2015-Aug-22 15:33N 41°38' W 071°18'8 7.7
2015-Aug-22 14:33N 41°44' W 071°22'4 3.8
2015-Aug-22 13:32N 41°48' W 071°24'0 0.0
2015-Aug-22 12:32N 41°48' W 071°24'0 0.0
2015-Aug-22 11:33N 41°48' W 071°24'0 0.0
2015-Aug-22 10:33N 41°48' W 071°24'0 0.0
2015-Aug-22 09:33N 41°48' W 071°24'0 0.0
2015-Aug-22 08:33N 41°48' W 071°24'0 0.0
2015-Aug-22 07:33N 41°48' W 071°24'0 0.0
2015-Aug-22 06:33N 41°48' W 071°24'0 0.0
2015-Aug-22 05:33N 41°48' W 071°24'0 0.0
2015-Aug-22 04:33N 41°48' W 071°24'0 0.0
2015-Aug-22 03:33N 41°48' W 071°24'0 0.0
2015-Aug-22 02:33N 41°48' W 071°24'0 0.0
2015-Aug-22 01:33N 41°48' W 071°24'0 0.0
2015-Aug-22 00:33N 41°48' W 071°24'0 0.0
2015-Aug-21 23:33N 41°48' W 071°24'0 0.0
2015-Aug-21 22:31N 41°48' W 071°24'0 0.0
2015-Aug-21 21:32N 41°48' W 071°24'0 0.0
2015-Aug-21 20:31N 41°48' W 071°24'0 0.0
2015-Aug-21 19:33N 41°48' W 071°24'0 0.0
2015-Aug-21 18:33N 41°48' W 071°24'0 0.0
2015-Aug-21 17:33N 41°48' W 071°24'1 1.1
2015-Aug-21 16:33N 41°47' W 071°23'7 7.2
2015-Aug-21 15:33N 41°41' W 071°19'8 8.2
2015-Aug-21 14:33N 41°33' W 071°20'4 4.2
2015-Aug-21 13:33N 41°29' W 071°21'6 5.5
2015-Aug-21 12:33N 41°24' W 071°25'6 6.4
2015-Aug-21 11:33N 41°18' W 071°28'7 7.4
2015-Aug-21 10:33N 41°17' W 071°38'8 7.7
2015-Aug-21 09:33N 41°16' W 071°48'7 7.1
2015-Aug-21 08:33N 41°14' W 071°57'6 6.5
2015-Aug-21 07:34N 41°15' W 072°06'6 6.3
2015-Aug-21 06:33N 41°13' W 072°14'6 6.0
2015-Aug-21 05:33N 41°11' W 072°21'6 6.1
2015-Aug-21 04:33N 41°08' W 072°28'6 6.5
2015-Aug-21 03:33N 41°07' W 072°37'7 7.1
2015-Aug-21 02:33N 41°05' W 072°46'7 7.5
2015-Aug-21 01:33N 41°03' W 072°56'8 7.8
2015-Aug-21 00:33N 41°02' W 073°06'8 7.8
2015-Aug-20 23:33N 41°01' W 073°16'8 7.9
2015-Aug-20 22:33N 40°59' W 073°26'8 7.8
2015-Aug-20 21:33N 40°56' W 073°36'5 5.4
2015-Aug-20 20:33N 40°54' W 073°42'5 5.2
2015-Aug-20 19:33N 40°50' W 073°47'6 6.0
2015-Aug-20 18:33N 40°48' W 073°54'6 6.5
2015-Aug-20 17:33N 40°42' W 073°59'6 5.7
2015-Aug-20 16:33N 40°39' W 074°05'1 1.4
2015-Aug-20 15:33N 40°39' W 074°07'1 0.6
2015-Aug-20 14:33N 40°39' W 074°07'0 0.0
2015-Aug-20 13:33N 40°39' W 074°07'0 0.0
2015-Aug-20 12:33N 40°39' W 074°07'0 0.0
2015-Aug-20 11:33N 40°39' W 074°07'0 0.0
2015-Aug-20 10:33N 40°39' W 074°07'0 0.0
2015-Aug-20 09:33N 40°39' W 074°07'  

Dump ship's entire track history